createdAt,value
2022-12-19T00:00:30.184Z,34.93
2022-12-19T00:02:57.683Z,33.00
2022-12-19T00:05:24.890Z,34.45
2022-12-19T00:07:53.856Z,33.17
2022-12-19T00:10:21.369Z,36.00
2022-12-19T00:12:50.066Z,36.83
2022-12-19T00:15:18.374Z,35.75
2022-12-19T00:17:45.590Z,36.33
2022-12-19T00:20:13.090Z,37.67
2022-12-19T00:22:45.043Z,36.42
2022-12-19T00:25:12.778Z,36.05
2022-12-19T00:27:41.532Z,35.40
2022-12-19T00:30:09.294Z,36.58
2022-12-19T00:32:40.234Z,34.85
2022-12-19T00:35:07.684Z,34.45
2022-12-19T00:37:35.276Z,36.78
2022-12-19T00:40:06.644Z,37.00
2022-12-19T00:42:33.791Z,36.72
2022-12-19T00:45:01.442Z,36.38
2022-12-19T00:47:28.895Z,36.78
2022-12-19T00:49:56.192Z,37.70
2022-12-19T00:52:23.473Z,36.60
2022-12-19T00:54:50.731Z,36.38
2022-12-19T00:57:20.212Z,35.65
2022-12-19T00:59:48.627Z,37.10
2022-12-19T01:03:37.997Z,35.95
2022-12-19T01:06:05.754Z,36.65
2022-12-19T01:08:33.311Z,38.17
2022-12-19T01:11:00.794Z,34.97
2022-12-19T01:13:30.724Z,35.75
2022-12-19T01:16:03.644Z,36.95
2022-12-19T01:18:31.176Z,37.40
2022-12-19T01:21:04.930Z,37.40
2022-12-19T01:23:34.314Z,36.22
2022-12-19T01:26:01.602Z,36.08
2022-12-19T01:28:29.742Z,36.72
2022-12-19T01:30:58.104Z,37.10
2022-12-19T01:33:25.405Z,36.33
2022-12-19T01:35:54.190Z,37.30
2022-12-19T01:38:21.804Z,37.25
2022-12-19T01:40:57.745Z,38.65
2022-12-19T01:43:29.700Z,37.85
2022-12-19T01:46:03.593Z,36.67
2022-12-19T01:48:38.702Z,36.08
2022-12-19T01:51:20.504Z,35.38
2022-12-19T01:53:54.711Z,38.13
2022-12-19T01:56:29.409Z,38.72
2022-12-19T01:59:05.850Z,37.72
2022-12-19T02:01:51.049Z,37.97
2022-12-19T02:04:32.467Z,37.70
2022-12-19T02:07:14.992Z,36.63
2022-12-19T02:09:52.428Z,38.22
2022-12-19T02:12:28.857Z,36.42
2022-12-19T02:15:03.263Z,38.25
2022-12-19T02:17:54.762Z,35.05
2022-12-19T02:20:54.229Z,36.72
2022-12-19T02:24:02.337Z,36.97
2022-12-19T02:27:07.080Z,36.00
2022-12-19T02:29:41.509Z,35.25
2022-12-19T02:32:36.235Z,36.28
2022-12-19T02:35:22.991Z,35.40
2022-12-19T02:38:19.607Z,34.50
2022-12-19T02:40:55.647Z,37.15
2022-12-19T02:43:30.800Z,34.85
2022-12-19T02:46:00.000Z,37.05
2022-12-19T02:48:28.519Z,35.13
2022-12-19T02:50:56.000Z,35.60
2022-12-19T02:53:24.840Z,36.28
2022-12-19T02:56:50.669Z,36.03
2022-12-19T02:59:33.380Z,34.97
2022-12-19T03:02:07.711Z,33.75
2022-12-19T03:04:59.723Z,34.88
2022-12-19T03:07:49.917Z,34.33
2022-12-19T03:10:48.643Z,33.83
2022-12-19T03:13:25.054Z,32.75
2022-12-19T03:15:54.148Z,33.67
2022-12-19T03:18:21.613Z,34.58
2022-12-19T03:21:26.201Z,36.33
2022-12-19T03:23:55.669Z,35.15
2022-12-19T03:26:27.740Z,34.42
2022-12-19T03:29:11.639Z,34.85
2022-12-19T03:31:40.248Z,32.60
2022-12-19T03:34:36.914Z,33.47
2022-12-19T03:37:07.371Z,34.25
2022-12-19T03:39:35.642Z,34.65
2022-12-19T03:42:25.782Z,34.90
2022-12-19T03:44:55.795Z,32.65
2022-12-19T03:47:35.547Z,33.25
2022-12-19T03:50:03.065Z,34.15
2022-12-19T03:53:09.472Z,33.60
2022-12-19T03:55:49.660Z,33.25
2022-12-19T03:58:30.305Z,32.72
2022-12-19T04:03:25.640Z,29.67
2022-12-19T04:05:54.503Z,32.50
2022-12-19T04:08:23.920Z,32.00
2022-12-19T04:10:56.395Z,32.20
2022-12-19T04:13:38.972Z,30.75
2022-12-19T04:16:19.835Z,32.35
2022-12-19T04:18:58.367Z,31.30
2022-12-19T04:21:35.354Z,31.35
2022-12-19T04:24:12.807Z,30.85
2022-12-19T04:26:44.251Z,32.45
2022-12-19T04:29:13.865Z,30.98
2022-12-19T04:31:41.411Z,32.87
2022-12-19T04:34:09.025Z,32.60
2022-12-19T04:36:36.489Z,31.52
2022-12-19T04:39:04.489Z,31.60
2022-12-19T04:41:31.938Z,31.92
2022-12-19T04:43:59.085Z,32.47
2022-12-19T04:46:26.708Z,30.85
2022-12-19T04:48:54.286Z,31.63
2022-12-19T04:51:21.744Z,30.92
2022-12-19T04:53:50.043Z,32.50
2022-12-19T04:56:17.398Z,30.83
2022-12-19T04:58:45.520Z,32.03
2022-12-19T05:04:04.754Z,30.73
2022-12-19T05:06:33.017Z,30.88
2022-12-19T05:09:00.751Z,31.75
2022-12-19T05:11:28.455Z,31.65
2022-12-19T05:13:55.866Z,31.58
2022-12-19T05:16:23.838Z,31.13
2022-12-19T05:18:51.251Z,30.90
2022-12-19T05:21:19.406Z,30.20
2022-12-19T05:23:47.081Z,30.23
2022-12-19T05:26:15.478Z,30.67
2022-12-19T05:28:42.901Z,30.15
2022-12-19T05:31:11.912Z,31.70
2022-12-19T05:33:39.920Z,29.45
2022-12-19T05:36:08.568Z,30.38
2022-12-19T05:38:36.318Z,29.38
2022-12-19T05:41:08.185Z,30.65
2022-12-19T05:43:36.847Z,29.95
2022-12-19T05:46:08.147Z,29.23
2022-12-19T05:48:35.944Z,27.60
2022-12-19T05:51:03.555Z,28.35
2022-12-19T05:53:31.094Z,27.75
2022-12-19T05:56:05.884Z,27.90
2022-12-19T05:58:33.727Z,27.50
2022-12-19T06:01:06.174Z,27.83
2022-12-19T06:03:33.634Z,27.38
2022-12-19T06:06:05.172Z,27.73
2022-12-19T06:08:32.920Z,26.20
2022-12-19T06:11:01.363Z,27.05
2022-12-19T06:13:29.714Z,26.40
2022-12-19T06:16:00.985Z,25.27
2022-12-19T06:18:29.203Z,25.15
2022-12-19T06:20:57.953Z,25.85
2022-12-19T06:23:25.770Z,25.23
2022-12-19T06:25:53.258Z,24.45
2022-12-19T06:28:20.954Z,23.55
2022-12-19T06:30:49.564Z,24.17
2022-12-19T06:33:18.383Z,23.13
2022-12-19T06:35:46.420Z,21.95
2022-12-19T06:38:14.362Z,20.83
2022-12-19T06:41:02.352Z,21.02
2022-12-19T06:43:30.343Z,21.25
2022-12-19T06:45:58.582Z,19.17
2022-12-19T06:48:27.767Z,21.15
2022-12-19T06:50:55.813Z,19.35
2022-12-19T06:53:24.072Z,18.10
2022-12-19T06:55:53.223Z,18.40
2022-12-19T06:58:24.208Z,18.58
2022-12-19T07:00:52.714Z,18.23
2022-12-19T07:03:24.704Z,17.58
2022-12-19T07:05:53.419Z,17.20
2022-12-19T07:08:21.170Z,16.90
2022-12-19T07:10:49.722Z,16.60
2022-12-19T07:13:18.131Z,17.13
2022-12-19T07:15:47.401Z,16.05
2022-12-19T07:18:15.635Z,15.33
2022-12-19T07:20:45.337Z,15.93
2022-12-19T07:23:15.600Z,15.45
2022-12-19T07:25:44.047Z,15.63
2022-12-19T07:28:11.674Z,14.82
2022-12-19T07:30:39.298Z,15.35
2022-12-19T07:33:11.005Z,15.95
2022-12-19T07:35:40.487Z,14.50
2022-12-19T07:38:09.025Z,14.45
2022-12-19T07:40:36.908Z,14.68
2022-12-19T07:43:05.661Z,14.32
2022-12-19T07:45:34.510Z,14.23
2022-12-19T07:48:03.908Z,14.13
2022-12-19T07:50:31.916Z,13.88
2022-12-19T07:52:59.795Z,12.98
2022-12-19T07:55:27.876Z,12.98
2022-12-19T07:57:56.103Z,13.02
2022-12-19T08:00:25.468Z,13.18
2022-12-19T08:02:53.550Z,13.35
2022-12-19T08:05:24.591Z,12.63
2022-12-19T08:07:57.085Z,12.15
2022-12-19T08:10:27.204Z,13.00
2022-12-19T08:12:55.139Z,11.90
2022-12-19T08:15:22.979Z,11.15
2022-12-19T08:17:50.627Z,11.90
2022-12-19T08:20:19.212Z,11.48
2022-12-19T08:22:47.070Z,11.50
2022-12-19T08:25:15.767Z,10.30
2022-12-19T08:27:44.418Z,11.40
2022-12-19T08:30:14.074Z,10.30
2022-12-19T08:32:41.583Z,11.13
2022-12-19T08:35:09.455Z,11.40
2022-12-19T08:37:38.040Z,10.25
2022-12-19T08:40:05.798Z,10.13
2022-12-19T08:42:33.778Z,10.02
2022-12-19T08:45:01.443Z,10.63
2022-12-19T08:47:29.296Z,10.68
2022-12-19T08:49:59.201Z,10.25
2022-12-19T08:52:26.908Z,9.60
2022-12-19T08:54:55.174Z,10.23
2022-12-19T08:57:22.981Z,9.93
2022-12-19T08:59:51.809Z,10.63
2022-12-19T09:02:20.876Z,10.10
2022-12-19T09:06:00.590Z,9.77
2022-12-19T09:07:38.511Z,10.30
2022-12-19T09:10:07.440Z,10.00
2022-12-19T09:12:36.628Z,9.23
2022-12-19T09:15:04.615Z,10.02
2022-12-19T09:17:32.148Z,10.55
2022-12-19T09:20:00.151Z,9.55
2022-12-19T09:22:29.375Z,10.43
2022-12-19T09:24:57.193Z,10.17
2022-12-19T09:27:24.968Z,9.95
2022-12-19T09:29:52.851Z,9.05
2022-12-19T09:32:20.483Z,9.75
2022-12-19T09:34:49.704Z,10.55
2022-12-19T09:37:19.419Z,9.75
2022-12-19T09:39:48.424Z,9.50
2022-12-19T09:42:22.879Z,9.70
2022-12-19T09:44:54.109Z,9.25
2022-12-19T09:47:25.101Z,9.38
2022-12-19T09:49:55.232Z,9.70
2022-12-19T09:52:33.146Z,9.82
2022-12-19T09:55:13.733Z,9.10
2022-12-19T09:58:01.557Z,9.00
2022-12-19T10:00:35.231Z,9.13
2022-12-19T10:03:06.352Z,9.15
2022-12-19T10:07:00.745Z,9.02
2022-12-19T10:09:26.343Z,9.95
2022-12-19T10:14:20.644Z,9.95
2022-12-19T10:17:24.256Z,9.17
2022-12-19T10:20:14.431Z,9.35
2022-12-19T10:22:45.116Z,9.20
2022-12-19T10:25:25.989Z,8.15
2022-12-19T10:28:12.278Z,9.68
2022-12-19T10:30:45.146Z,9.15
2022-12-19T10:33:20.091Z,8.85
2022-12-19T10:35:53.498Z,8.27
2022-12-19T10:38:29.780Z,8.38
2022-12-19T10:41:20.394Z,8.55
2022-12-19T10:44:10.177Z,8.23
2022-12-19T10:46:43.450Z,7.87
2022-12-19T10:49:21.846Z,7.75
2022-12-19T10:51:57.366Z,7.65
2022-12-19T10:54:33.357Z,8.18
2022-12-19T10:57:19.855Z,7.60
2022-12-19T11:00:11.638Z,7.60
2022-12-19T11:02:39.631Z,7.28
2022-12-19T11:05:20.974Z,6.70
2022-12-19T11:08:12.054Z,6.90
2022-12-19T11:14:40.940Z,6.75
2022-12-19T11:19:27.880Z,7.28
2022-12-19T11:19:41.890Z,6.97
2022-12-19T11:27:44.033Z,7.75
2022-12-19T11:29:33.804Z,7.35
2022-12-19T11:30:43.365Z,8.63
2022-12-19T11:30:48.851Z,8.10
2022-12-19T11:34:14.261Z,8.18
2022-12-19T11:36:50.113Z,7.80
2022-12-19T11:39:38.611Z,7.15
2022-12-19T11:42:27.431Z,7.88
2022-12-19T11:45:03.885Z,6.90
2022-12-19T11:47:40.659Z,7.90
2022-12-19T11:50:14.082Z,7.55
2022-12-19T11:53:04.149Z,7.57
2022-12-19T11:55:49.217Z,7.18
2022-12-19T11:58:18.257Z,6.72
2022-12-19T12:01:06.455Z,6.45
2022-12-19T12:03:34.451Z,6.95
2022-12-19T12:06:05.671Z,6.63
2022-12-19T12:11:33.606Z,5.88
2022-12-19T12:17:26.956Z,7.00
2022-12-19T12:21:50.104Z,6.00
2022-12-19T12:31:13.553Z,6.20
2022-12-19T12:31:21.025Z,6.57
2022-12-19T12:31:38.460Z,6.03
2022-12-19T12:31:44.957Z,5.55
2022-12-19T12:32:06.159Z,5.40
2022-12-19T12:35:40.506Z,5.43
2022-12-19T12:35:40.780Z,4.93
2022-12-19T12:40:46.074Z,4.53
2022-12-19T12:43:25.679Z,5.65
2022-12-19T12:45:53.376Z,5.22
2022-12-19T12:48:21.385Z,4.90
2022-12-19T12:50:55.005Z,4.90
2022-12-19T12:53:27.467Z,4.88
2022-12-19T12:55:57.501Z,5.60
2022-12-19T12:58:43.890Z,4.60
2022-12-19T13:01:11.625Z,4.88
2022-12-19T13:03:41.744Z,4.70
2022-12-19T13:06:32.830Z,5.13
2022-12-19T13:09:09.240Z,4.90
2022-12-19T13:12:00.449Z,4.45
2022-12-19T13:14:37.316Z,5.25
2022-12-19T13:17:08.919Z,5.18
2022-12-19T13:19:37.629Z,5.30
2022-12-19T13:22:05.192Z,5.20
2022-12-19T13:24:50.023Z,4.85
2022-12-19T13:27:20.603Z,5.25
2022-12-19T13:30:01.030Z,5.15
2022-12-19T13:32:34.580Z,5.03
2022-12-19T13:35:43.475Z,4.75
2022-12-19T13:39:48.340Z,4.90
2022-12-19T13:40:52.192Z,4.72
2022-12-19T13:43:41.240Z,4.95
2022-12-19T13:46:27.364Z,5.00
2022-12-19T13:48:57.436Z,4.57
2022-12-19T13:51:25.495Z,4.28
2022-12-19T13:53:59.284Z,4.20
2022-12-19T13:56:31.225Z,3.95
2022-12-19T14:01:33.920Z,3.90
2022-12-19T14:04:08.389Z,3.90
2022-12-19T14:06:45.179Z,4.00
2022-12-19T14:11:28.483Z,4.15
2022-12-19T14:13:48.218Z,4.20
2022-12-19T14:15:37.485Z,4.78
2022-12-19T14:18:44.629Z,4.35
2022-12-19T14:22:03.939Z,4.50
2022-12-19T14:24:21.247Z,4.17
2022-12-19T14:28:22.352Z,4.32
2022-12-19T14:30:28.525Z,4.22
2022-12-19T14:33:44.185Z,4.65
2022-12-19T14:36:12.144Z,5.30
2022-12-19T14:39:22.152Z,4.72
2022-12-19T14:42:00.704Z,4.80
2022-12-19T14:52:35.127Z,3.90
2022-12-19T14:54:07.607Z,4.60
2022-12-19T14:54:09.465Z,4.47
2022-12-19T14:54:29.758Z,4.78
2022-12-19T14:56:33.652Z,4.90
2022-12-19T14:59:01.390Z,4.82
2022-12-19T15:01:30.852Z,4.10
2022-12-19T15:04:47.763Z,4.25
2022-12-19T15:07:09.396Z,4.63
2022-12-19T15:11:01.040Z,4.30
2022-12-19T15:14:52.303Z,4.20
2022-12-19T15:16:01.543Z,4.10
2022-12-19T15:18:29.214Z,4.57
2022-12-19T15:20:59.287Z,4.47
2022-12-19T15:23:27.212Z,4.57
2022-12-19T15:26:05.103Z,4.35
2022-12-19T15:28:44.545Z,4.13
2022-12-19T15:31:25.272Z,4.35
2022-12-19T15:34:32.188Z,4.43
2022-12-19T15:36:40.723Z,4.30
2022-12-19T15:39:08.537Z,4.55
2022-12-19T15:41:36.192Z,4.43
2022-12-19T15:44:10.107Z,4.60
2022-12-19T15:46:42.994Z,4.03
2022-12-19T15:49:18.046Z,4.18
2022-12-19T15:51:45.840Z,4.00
2022-12-19T15:57:04.978Z,4.47
2022-12-19T15:59:38.012Z,4.00
2022-12-19T16:02:24.746Z,4.03
2022-12-19T16:04:56.884Z,3.72
2022-12-19T16:07:31.095Z,3.45
2022-12-19T16:09:58.508Z,4.07
2022-12-19T16:12:30.912Z,3.50
2022-12-19T16:14:59.746Z,4.00
2022-12-19T16:17:28.089Z,3.40
2022-12-19T16:19:55.572Z,3.47
2022-12-19T16:22:30.682Z,3.80
2022-12-19T16:24:58.271Z,3.70
2022-12-19T16:27:30.079Z,3.75
2022-12-19T16:29:59.880Z,3.50
2022-12-19T16:32:27.314Z,3.40
2022-12-19T16:34:55.778Z,3.47
2022-12-19T16:37:28.466Z,3.25
2022-12-19T16:39:59.733Z,3.20
2022-12-19T16:42:28.781Z,3.40
2022-12-19T16:44:56.866Z,3.20
2022-12-19T16:47:24.373Z,3.38
2022-12-19T16:49:52.232Z,3.78
2022-12-19T16:52:20.603Z,3.20
2022-12-19T16:54:49.140Z,3.22
2022-12-19T16:57:20.195Z,4.03
2022-12-19T16:59:48.521Z,3.55
2022-12-19T17:02:36.321Z,3.38
2022-12-19T17:05:04.815Z,3.28
2022-12-19T17:07:32.615Z,3.33
2022-12-19T17:10:00.277Z,2.95
2022-12-19T17:12:28.191Z,3.00
2022-12-19T17:14:56.382Z,3.75
2022-12-19T17:17:24.265Z,3.30
2022-12-19T17:19:52.413Z,3.38
2022-12-19T17:22:21.489Z,3.40
2022-12-19T17:24:50.235Z,3.40
2022-12-19T17:27:19.310Z,3.40
2022-12-19T17:29:47.991Z,3.63
2022-12-19T17:32:23.497Z,3.47
2022-12-19T17:34:52.966Z,3.55
2022-12-19T17:37:21.542Z,3.40
2022-12-19T17:39:49.411Z,3.30
2022-12-19T17:42:19.876Z,3.85
2022-12-19T17:47:18.130Z,3.90
2022-12-19T17:49:45.939Z,3.58
2022-12-19T17:52:19.113Z,3.42
2022-12-19T17:54:46.837Z,3.40
2022-12-19T17:57:15.581Z,3.50
2022-12-19T17:59:43.391Z,3.80
2022-12-19T18:02:31.863Z,3.55
2022-12-19T18:05:01.539Z,3.60
2022-12-19T18:07:29.177Z,3.73
2022-12-19T18:09:56.736Z,3.45
2022-12-19T18:12:24.896Z,3.75
2022-12-19T18:14:52.446Z,3.50
2022-12-19T18:17:26.771Z,3.65
2022-12-19T18:19:54.369Z,3.40
2022-12-19T18:22:22.032Z,3.55
2022-12-19T18:24:51.782Z,3.63
2022-12-19T18:27:20.060Z,3.60
2022-12-19T18:29:49.799Z,3.50
2022-12-19T18:32:19.526Z,3.35
2022-12-19T18:34:47.384Z,3.83
2022-12-19T18:37:16.037Z,3.40
2022-12-19T18:39:43.635Z,3.35
2022-12-19T18:42:24.222Z,3.20
2022-12-19T18:44:53.291Z,3.42
2022-12-19T18:47:22.167Z,3.00
2022-12-19T18:49:52.514Z,3.60
2022-12-19T18:52:21.948Z,3.70
2022-12-19T18:54:50.300Z,3.25
2022-12-19T18:57:18.184Z,3.80
2022-12-19T18:59:46.182Z,3.70
2022-12-19T19:02:26.262Z,3.58
2022-12-19T19:04:57.507Z,3.65
2022-12-19T19:07:28.711Z,3.65
2022-12-19T19:09:56.200Z,3.38
2022-12-19T19:12:49.656Z,3.55
2022-12-19T19:15:19.941Z,3.50
2022-12-19T19:17:50.293Z,3.63
2022-12-19T19:20:19.752Z,3.08
2022-12-19T19:22:48.710Z,3.50
2022-12-19T19:25:16.757Z,3.10
2022-12-19T19:27:44.418Z,3.08
2022-12-19T19:30:12.141Z,3.60
2022-12-19T19:32:41.735Z,3.00
2022-12-19T19:35:09.975Z,3.00
2022-12-19T19:37:38.378Z,3.65
2022-12-19T19:40:06.350Z,3.15
2022-12-19T19:42:33.795Z,3.20
2022-12-19T19:45:01.456Z,3.42
2022-12-19T19:47:32.735Z,3.28
2022-12-19T19:50:00.628Z,3.50
2022-12-19T19:52:28.153Z,3.17
2022-12-19T19:55:05.463Z,3.55
2022-12-19T19:57:33.829Z,3.22
2022-12-19T20:00:01.693Z,3.00
2022-12-19T20:02:29.622Z,3.05
2022-12-19T20:04:57.210Z,3.40
2022-12-19T20:07:24.834Z,3.15
2022-12-19T20:09:53.340Z,3.50
2022-12-19T20:12:26.111Z,3.28
2022-12-19T20:14:57.318Z,3.25
2022-12-19T20:17:25.363Z,3.35
2022-12-19T20:19:53.146Z,3.00
2022-12-19T20:22:21.759Z,3.50
2022-12-19T20:24:50.564Z,3.30
2022-12-19T20:27:21.524Z,3.58
2022-12-19T20:29:50.478Z,3.40
2022-12-19T20:32:19.013Z,3.63
2022-12-19T20:34:46.821Z,3.42
2022-12-19T20:37:15.279Z,3.25
2022-12-19T20:39:43.744Z,3.53
2022-12-19T20:42:11.230Z,3.28
2022-12-19T20:44:39.024Z,3.05
2022-12-19T20:47:06.810Z,3.08
2022-12-19T20:49:34.267Z,3.25
2022-12-19T20:52:02.644Z,3.55
2022-12-19T20:54:30.931Z,3.17
2022-12-19T20:56:58.465Z,3.72
2022-12-19T20:59:25.940Z,3.00
2022-12-19T21:01:55.505Z,3.22
2022-12-19T21:04:23.382Z,3.55
2022-12-19T21:06:51.529Z,3.33
2022-12-19T21:09:22.418Z,3.03
2022-12-19T21:11:50.411Z,3.45
2022-12-19T21:14:19.311Z,3.20
2022-12-19T21:16:52.650Z,3.40
2022-12-19T21:19:20.444Z,3.10
2022-12-19T21:21:50.747Z,3.10
2022-12-19T21:24:19.225Z,3.38
2022-12-19T21:26:57.840Z,3.10
2022-12-19T21:29:26.948Z,3.28
2022-12-19T21:31:55.097Z,3.65
2022-12-19T21:34:23.082Z,3.10
2022-12-19T21:36:50.849Z,3.55
2022-12-19T21:39:25.519Z,3.40
2022-12-19T21:41:53.231Z,3.60
2022-12-19T21:44:21.509Z,3.30
2022-12-19T21:46:49.625Z,3.38
2022-12-19T21:49:23.324Z,3.85
2022-12-19T21:51:50.967Z,3.20
2022-12-19T21:54:22.062Z,3.42
2022-12-19T21:56:50.181Z,3.47
2022-12-19T21:59:21.492Z,3.75
2022-12-19T22:01:49.625Z,3.75
2022-12-19T22:04:21.113Z,3.20
2022-12-19T22:06:51.489Z,3.65
2022-12-19T22:09:21.545Z,3.45
2022-12-19T22:11:50.607Z,3.85
2022-12-19T22:14:21.986Z,3.70
2022-12-19T22:16:50.864Z,3.75
2022-12-19T22:19:19.204Z,3.58
2022-12-19T22:21:48.449Z,3.45
2022-12-19T22:24:18.027Z,3.78
2022-12-19T22:26:46.290Z,3.25
2022-12-19T22:29:18.046Z,4.10
2022-12-19T22:31:46.844Z,3.28
2022-12-19T22:34:18.292Z,3.35
2022-12-19T22:36:46.639Z,3.45
2022-12-19T22:39:15.040Z,3.30
2022-12-19T22:41:43.063Z,3.30
2022-12-19T22:44:16.355Z,3.72
2022-12-19T22:46:44.263Z,3.20
2022-12-19T22:49:12.406Z,3.45
2022-12-19T22:51:40.043Z,3.45
2022-12-19T22:54:07.651Z,3.35
2022-12-19T22:56:35.928Z,3.70
2022-12-19T22:59:05.669Z,3.67
2022-12-19T23:01:41.190Z,3.60
2022-12-19T23:04:10.230Z,3.40
2022-12-19T23:06:38.593Z,3.28
2022-12-19T23:09:07.196Z,3.70
2022-12-19T23:11:36.360Z,3.60
2022-12-19T23:14:04.832Z,3.67
2022-12-19T23:16:32.741Z,3.47
2022-12-19T23:19:00.295Z,3.72
2022-12-19T23:21:28.422Z,4.00
2022-12-19T23:23:56.129Z,3.63
2022-12-19T23:26:30.754Z,5.63
2022-12-19T23:28:59.839Z,4.20
2022-12-19T23:31:28.303Z,3.78
2022-12-19T23:33:56.561Z,3.88
2022-12-19T23:37:00.524Z,4.22
2022-12-19T23:39:12.907Z,3.97
2022-12-19T23:41:40.944Z,3.67
2022-12-19T23:44:09.111Z,3.50
2022-12-19T23:46:37.293Z,3.58
2022-12-19T23:49:05.356Z,3.47
2022-12-19T23:51:32.764Z,3.60
2022-12-19T23:54:00.404Z,3.40
2022-12-19T23:56:29.303Z,3.38
2022-12-19T23:58:57.332Z,2.92
